createdAt,value
2023-03-07T00:01:49.852Z,18.80
2023-03-07T00:04:19.746Z,18.80
2023-03-07T00:06:49.505Z,18.80
2023-03-07T00:09:19.201Z,18.90
2023-03-07T00:11:48.781Z,18.90
2023-03-07T00:14:18.507Z,18.90
2023-03-07T00:16:51.621Z,18.90
2023-03-07T00:19:21.608Z,18.90
2023-03-07T00:21:51.160Z,18.90
2023-03-07T00:24:20.934Z,19.00
2023-03-07T00:26:50.649Z,19.00
2023-03-07T00:29:20.164Z,19.00
2023-03-07T00:31:51.603Z,19.10
2023-03-07T00:34:21.289Z,19.10
2023-03-07T00:36:50.902Z,19.10
2023-03-07T00:39:20.609Z,19.10
2023-03-07T00:41:50.231Z,19.20
2023-03-07T00:44:19.788Z,19.20
2023-03-07T00:46:49.468Z,19.30
2023-03-07T00:49:19.369Z,19.30
2023-03-07T00:51:49.033Z,19.40
2023-03-07T00:54:19.095Z,19.50
2023-03-07T00:56:48.753Z,19.50
2023-03-07T00:59:18.428Z,19.60
2023-03-07T01:01:48.176Z,19.60
2023-03-07T01:04:17.909Z,19.70
2023-03-07T01:06:47.492Z,19.80
2023-03-07T01:09:17.230Z,19.80
2023-03-07T01:11:46.813Z,19.80
2023-03-07T01:14:16.403Z,19.90
2023-03-07T01:16:46.258Z,19.90
2023-03-07T01:19:16.793Z,20.00
2023-03-07T01:21:46.555Z,20.10
2023-03-07T01:24:17.806Z,20.20
2023-03-07T01:26:50.760Z,20.20
2023-03-07T01:29:20.436Z,20.30
2023-03-07T01:31:50.178Z,20.40
2023-03-07T01:34:20.189Z,20.50
2023-03-07T01:36:49.931Z,20.60
2023-03-07T01:39:20.098Z,20.70
2023-03-07T01:41:49.824Z,20.80
2023-03-07T01:44:22.483Z,20.90
2023-03-07T01:46:57.953Z,21.00
2023-03-07T01:49:40.737Z,21.10
2023-03-07T01:52:14.463Z,21.30
2023-03-07T01:54:50.541Z,21.40
2023-03-07T01:57:23.634Z,21.50
2023-03-07T01:59:57.177Z,21.60
2023-03-07T02:02:28.099Z,21.80
2023-03-07T02:05:22.598Z,21.90
2023-03-07T02:07:53.616Z,22.00
2023-03-07T02:10:25.035Z,22.10
2023-03-07T02:12:56.639Z,22.20
2023-03-07T02:15:26.337Z,22.40
2023-03-07T02:17:56.334Z,22.50
2023-03-07T02:20:43.966Z,22.60
2023-03-07T02:23:24.166Z,22.70
2023-03-07T02:26:09.490Z,22.80
2023-03-07T02:28:41.530Z,22.90
2023-03-07T02:31:13.246Z,23.00
2023-03-07T02:33:42.914Z,23.10
2023-03-07T02:36:18.550Z,23.20
2023-03-07T02:38:50.678Z,23.30
2023-03-07T02:41:24.231Z,23.40
2023-03-07T02:43:53.810Z,23.50
2023-03-07T02:46:23.479Z,23.60
2023-03-07T02:48:53.286Z,23.80
2023-03-07T02:51:22.980Z,23.90
2023-03-07T02:53:52.960Z,24.00
2023-03-07T02:56:22.617Z,24.00
2023-03-07T02:58:52.300Z,24.10
2023-03-07T03:01:21.984Z,24.20
2023-03-07T03:03:51.709Z,24.30
2023-03-07T03:06:21.480Z,24.30
2023-03-07T03:08:51.264Z,24.50
2023-03-07T03:11:20.846Z,24.60
2023-03-07T03:13:50.545Z,24.70
2023-03-07T03:16:20.361Z,24.80
2023-03-07T03:18:50.033Z,24.90
2023-03-07T03:21:20.607Z,25.00
2023-03-07T03:23:50.360Z,25.20
2023-03-07T03:26:20.345Z,25.30
2023-03-07T03:28:50.255Z,25.40
2023-03-07T03:31:19.986Z,25.40
2023-03-07T03:33:51.094Z,25.50
2023-03-07T03:36:22.070Z,25.50
2023-03-07T03:38:51.685Z,25.60
2023-03-07T03:41:21.430Z,25.70
2023-03-07T03:43:51.181Z,25.80
2023-03-07T03:46:22.099Z,25.80
2023-03-07T03:48:56.192Z,25.90
2023-03-07T03:51:26.610Z,26.00
2023-03-07T03:53:57.015Z,26.10
2023-03-07T03:56:27.832Z,26.10
2023-03-07T03:58:59.260Z,26.20
2023-03-07T04:01:30.524Z,26.30
2023-03-07T04:04:00.901Z,26.40
2023-03-07T04:06:36.074Z,26.50
2023-03-07T04:09:06.867Z,26.60
2023-03-07T04:11:36.646Z,26.70
2023-03-07T04:14:06.312Z,26.70
2023-03-07T04:16:35.967Z,26.80
2023-03-07T04:19:05.761Z,26.90
2023-03-07T04:21:36.376Z,26.90
2023-03-07T04:24:06.188Z,27.00
2023-03-07T04:26:36.884Z,27.10
2023-03-07T04:29:07.225Z,27.20
2023-03-07T04:31:36.952Z,27.40
2023-03-07T04:34:07.024Z,27.50
2023-03-07T04:36:36.755Z,27.70
2023-03-07T04:39:07.005Z,27.80
2023-03-07T04:41:36.983Z,27.90
2023-03-07T04:44:06.888Z,28.00
2023-03-07T04:46:36.638Z,28.10
2023-03-07T04:49:07.142Z,28.20
2023-03-07T04:51:36.919Z,28.20
2023-03-07T04:54:06.719Z,28.30
2023-03-07T04:56:36.404Z,28.30
2023-03-07T04:59:06.124Z,28.30
2023-03-07T05:01:36.041Z,28.40
2023-03-07T05:04:05.885Z,28.40
2023-03-07T05:06:35.753Z,28.50
2023-03-07T05:09:06.516Z,28.60
2023-03-07T05:11:36.245Z,28.70
2023-03-07T05:14:05.858Z,28.70
2023-03-07T05:16:35.689Z,28.80
2023-03-07T05:19:06.202Z,28.80
2023-03-07T05:21:36.214Z,28.90
2023-03-07T05:24:06.614Z,29.00
2023-03-07T05:26:36.507Z,29.00
2023-03-07T05:29:06.358Z,29.10
2023-03-07T05:31:36.395Z,29.10
2023-03-07T05:34:06.101Z,29.10
2023-03-07T05:36:35.800Z,29.10
2023-03-07T05:39:06.852Z,29.10
2023-03-07T05:41:36.502Z,29.20
2023-03-07T05:44:06.649Z,29.30
2023-03-07T05:46:36.383Z,29.30
2023-03-07T05:49:06.525Z,29.40
2023-03-07T05:51:36.161Z,29.40
2023-03-07T05:54:05.962Z,29.50
2023-03-07T05:56:35.638Z,29.60
2023-03-07T05:59:05.531Z,29.70
2023-03-07T06:01:35.621Z,29.70
2023-03-07T06:04:05.383Z,29.70
2023-03-07T06:06:35.046Z,29.80
2023-03-07T06:09:07.404Z,29.80
2023-03-07T06:11:36.972Z,29.90
2023-03-07T06:14:06.552Z,30.00
2023-03-07T06:16:36.236Z,30.00
2023-03-07T06:19:05.854Z,30.00
2023-03-07T06:21:35.445Z,30.10
2023-03-07T06:24:05.310Z,30.20
2023-03-07T06:26:35.804Z,30.20
2023-03-07T06:29:05.440Z,30.30
2023-03-07T06:31:35.126Z,30.30
2023-03-07T06:34:04.822Z,30.30
2023-03-07T06:36:34.630Z,30.30
2023-03-07T06:39:04.363Z,30.30
2023-03-07T06:41:34.306Z,30.30
2023-03-07T06:44:04.084Z,30.40
2023-03-07T06:46:33.685Z,30.40
2023-03-07T06:49:03.276Z,30.50
2023-03-07T06:51:32.981Z,30.60
2023-03-07T06:54:02.637Z,30.60
2023-03-07T06:56:33.001Z,30.70
2023-03-07T06:59:02.789Z,30.70
2023-03-07T07:01:32.616Z,30.70
2023-03-07T07:04:02.282Z,30.80
2023-03-07T07:06:32.489Z,30.80
2023-03-07T07:09:02.189Z,30.80
2023-03-07T07:11:31.830Z,30.90
2023-03-07T07:14:01.647Z,30.90
2023-03-07T07:16:31.345Z,30.90
2023-03-07T07:19:01.021Z,30.90
2023-03-07T07:21:30.872Z,30.90
2023-03-07T07:24:01.023Z,30.80
2023-03-07T07:26:30.822Z,30.80
2023-03-07T07:29:01.090Z,30.80
2023-03-07T07:31:30.928Z,30.80
2023-03-07T07:34:01.784Z,30.80
2023-03-07T07:36:31.590Z,30.80
2023-03-07T07:39:01.242Z,30.80
2023-03-07T07:41:31.062Z,30.80
2023-03-07T07:44:01.157Z,30.80
2023-03-07T07:46:30.841Z,30.90
2023-03-07T07:49:00.560Z,30.90
2023-03-07T07:51:30.258Z,31.00
2023-03-07T07:53:59.889Z,31.00
2023-03-07T07:56:29.837Z,30.90
2023-03-07T07:58:59.476Z,30.90
2023-03-07T08:01:29.141Z,31.00
2023-03-07T08:03:58.758Z,31.00
2023-03-07T08:06:30.286Z,31.00
2023-03-07T08:09:01.782Z,31.00
2023-03-07T08:11:31.432Z,31.00
2023-03-07T08:14:01.149Z,31.00
2023-03-07T08:16:31.195Z,31.10
2023-03-07T08:19:02.218Z,31.10
2023-03-07T08:21:32.780Z,31.20
2023-03-07T08:24:02.540Z,31.20
2023-03-07T08:26:32.185Z,31.20
2023-03-07T08:29:02.603Z,31.20
2023-03-07T08:31:32.427Z,31.30
2023-03-07T08:34:02.049Z,31.30
2023-03-07T08:36:31.812Z,31.20
2023-03-07T08:39:01.511Z,31.30
2023-03-07T08:41:31.330Z,31.20
2023-03-07T08:44:01.061Z,31.20
2023-03-07T08:46:30.985Z,31.20
2023-03-07T08:49:00.761Z,31.20
2023-03-07T08:51:30.696Z,31.20
2023-03-07T08:54:01.092Z,31.20
2023-03-07T08:56:30.792Z,31.20
2023-03-07T08:59:01.714Z,31.20
2023-03-07T09:01:31.332Z,31.20
2023-03-07T09:04:01.330Z,31.30
2023-03-07T09:06:31.068Z,31.30
2023-03-07T09:09:00.725Z,31.30
2023-03-07T09:11:30.410Z,31.30
2023-03-07T09:14:00.192Z,31.40
2023-03-07T09:16:29.816Z,31.40
2023-03-07T09:18:59.631Z,31.40
2023-03-07T09:21:29.291Z,31.40
2023-03-07T09:23:59.110Z,31.30
2023-03-07T09:26:28.832Z,31.30
2023-03-07T09:28:58.642Z,31.30
2023-03-07T09:31:29.118Z,31.30
2023-03-07T09:33:59.764Z,31.30
2023-03-07T09:36:29.385Z,31.30
2023-03-07T09:38:59.301Z,31.30
2023-03-07T09:42:01.402Z,31.20
2023-03-07T09:44:49.697Z,31.20
2023-03-07T09:47:59.155Z,31.20
2023-03-07T09:50:55.682Z,31.10
2023-03-07T09:53:47.051Z,31.20
2023-03-07T09:56:34.534Z,31.10
2023-03-07T09:59:36.154Z,31.10
2023-03-07T10:02:39.776Z,31.10
2023-03-07T10:05:34.657Z,31.00
2023-03-07T10:08:05.336Z,31.00
2023-03-07T10:10:43.643Z,30.90
2023-03-07T10:13:43.755Z,30.90
2023-03-07T10:16:26.675Z,30.90
2023-03-07T10:19:35.717Z,30.90
2023-03-07T10:22:34.915Z,30.80
2023-03-07T10:25:23.548Z,30.80
2023-03-07T10:28:01.127Z,30.70
2023-03-07T10:30:34.641Z,30.60
2023-03-07T10:33:07.642Z,30.60
2023-03-07T10:35:51.105Z,30.60
2023-03-07T10:38:41.966Z,30.50
2023-03-07T10:41:19.111Z,30.50
2023-03-07T10:43:49.805Z,30.40
2023-03-07T10:46:31.923Z,30.40
2023-03-07T10:49:20.338Z,30.30
2023-03-07T10:52:08.501Z,30.20
2023-03-07T10:54:40.840Z,30.20
2023-03-07T10:57:14.858Z,30.10
2023-03-07T10:59:47.050Z,30.10
2023-03-07T11:02:46.273Z,30.00
2023-03-07T11:05:38.351Z,29.90
2023-03-07T11:08:28.208Z,29.90
2023-03-07T11:10:57.914Z,29.80
2023-03-07T11:13:27.743Z,29.70
2023-03-07T11:16:22.342Z,29.60
2023-03-07T11:18:51.975Z,29.60
2023-03-07T11:21:41.135Z,29.50
2023-03-07T11:24:29.790Z,29.50
2023-03-07T11:27:01.778Z,29.40
2023-03-07T11:29:31.524Z,29.30
2023-03-07T11:32:23.282Z,29.30
2023-03-07T11:35:09.101Z,29.20
2023-03-07T11:38:04.608Z,29.10
2023-03-07T11:40:51.351Z,29.00
2023-03-07T11:43:43.313Z,29.00
2023-03-07T11:46:35.690Z,28.90
2023-03-07T11:49:32.071Z,28.90
2023-03-07T11:52:27.077Z,28.80
2023-03-07T11:55:36.198Z,28.80
2023-03-07T11:58:45.127Z,28.70
2023-03-07T12:01:41.112Z,28.60
2023-03-07T12:04:50.008Z,28.50
2023-03-07T12:07:45.382Z,28.40
2023-03-07T12:10:47.959Z,28.40
2023-03-07T12:13:47.844Z,28.30
2023-03-07T12:16:56.673Z,28.20
2023-03-07T12:19:39.244Z,28.20
2023-03-07T12:22:34.707Z,28.10
2023-03-07T12:25:25.232Z,28.00
2023-03-07T12:28:21.410Z,27.80
2023-03-07T12:31:17.727Z,27.80
2023-03-07T12:34:16.767Z,27.70
2023-03-07T12:36:55.924Z,27.50
2023-03-07T12:39:54.468Z,27.50
2023-03-07T12:42:37.218Z,27.40
2023-03-07T12:45:21.627Z,27.40
2023-03-07T12:48:30.431Z,27.30
2023-03-07T12:51:21.527Z,27.20
2023-03-07T12:54:05.478Z,27.10
2023-03-07T12:57:05.854Z,27.00
2023-03-07T12:59:38.859Z,27.00
2023-03-07T13:02:32.708Z,26.90
2023-03-07T13:05:03.982Z,26.80
2023-03-07T13:07:35.730Z,26.80
2023-03-07T13:10:09.207Z,26.70
2023-03-07T13:12:40.177Z,26.70
2023-03-07T13:15:49.014Z,26.60
2023-03-07T13:18:38.378Z,26.50
2023-03-07T13:21:29.998Z,26.40
2023-03-07T13:24:38.883Z,26.40
2023-03-07T13:27:32.223Z,26.30
2023-03-07T13:30:20.433Z,26.20
2023-03-07T13:33:20.397Z,26.10
2023-03-07T13:35:59.586Z,26.10
2023-03-07T13:38:46.440Z,26.00
2023-03-07T13:41:35.938Z,25.90
2023-03-07T13:44:05.841Z,25.90
2023-03-07T13:46:50.097Z,25.80
2023-03-07T13:49:41.007Z,25.80
2023-03-07T13:52:33.708Z,25.70
2023-03-07T13:55:06.903Z,25.70
2023-03-07T13:57:41.536Z,25.60
2023-03-07T14:00:26.468Z,25.60
2023-03-07T14:02:57.084Z,25.50
2023-03-07T14:05:27.288Z,25.50
2023-03-07T14:07:57.127Z,25.40
2023-03-07T14:10:30.865Z,25.30
2023-03-07T14:13:20.727Z,25.20
2023-03-07T14:16:23.946Z,25.10
2023-03-07T14:19:13.835Z,25.10
2023-03-07T14:22:05.678Z,25.00
2023-03-07T14:25:09.331Z,25.00
2023-03-07T14:28:00.654Z,24.90
2023-03-07T14:30:33.926Z,24.90
2023-03-07T14:33:04.011Z,24.90
2023-03-07T14:35:53.271Z,24.80
2023-03-07T14:38:28.473Z,24.80
2023-03-07T14:41:18.166Z,24.70
2023-03-07T14:44:18.800Z,24.70
2023-03-07T14:47:18.364Z,24.60
2023-03-07T14:50:27.052Z,24.60
2023-03-07T14:53:14.101Z,24.50
2023-03-07T14:55:46.839Z,24.50
2023-03-07T14:58:23.697Z,24.50
2023-03-07T15:01:05.657Z,24.40
2023-03-07T15:03:35.757Z,24.40
2023-03-07T15:06:05.640Z,24.30
2023-03-07T15:08:39.929Z,24.30
2023-03-07T15:11:17.541Z,24.20
2023-03-07T15:14:01.463Z,24.20
2023-03-07T15:16:43.382Z,24.10
2023-03-07T15:19:23.789Z,24.10
2023-03-07T15:22:02.693Z,24.00
2023-03-07T15:24:39.613Z,24.00
2023-03-07T15:27:12.390Z,24.00
2023-03-07T15:29:48.446Z,23.90
2023-03-07T15:32:39.308Z,23.90
2023-03-07T15:35:24.235Z,23.90
2023-03-07T15:38:08.715Z,23.80
2023-03-07T15:40:39.020Z,23.80
2023-03-07T15:43:36.407Z,23.80
2023-03-07T15:46:20.670Z,23.70
2023-03-07T15:48:56.821Z,23.60
2023-03-07T15:51:36.198Z,23.50
2023-03-07T15:54:22.792Z,23.50
2023-03-07T15:57:02.663Z,23.50
2023-03-07T15:59:43.668Z,23.40
2023-03-07T16:02:38.102Z,23.40
2023-03-07T16:05:30.693Z,23.40
2023-03-07T16:08:00.581Z,23.40
2023-03-07T16:10:33.487Z,23.40
2023-03-07T16:13:04.047Z,23.40
2023-03-07T16:15:33.650Z,23.30
2023-03-07T16:18:03.247Z,23.30
2023-03-07T16:20:32.990Z,23.30
2023-03-07T16:23:02.908Z,23.30
2023-03-07T16:25:33.773Z,23.20
2023-03-07T16:28:03.420Z,23.20
2023-03-07T16:30:35.535Z,23.20
2023-03-07T16:33:05.246Z,23.20
2023-03-07T16:35:34.914Z,23.10
2023-03-07T16:38:05.129Z,23.10
2023-03-07T16:40:35.240Z,23.10
2023-03-07T16:43:04.816Z,23.00
2023-03-07T16:45:35.667Z,23.00
2023-03-07T16:48:05.410Z,23.00
2023-03-07T16:50:35.422Z,23.00
2023-03-07T16:53:05.218Z,23.00
2023-03-07T16:55:35.991Z,22.90
2023-03-07T16:58:07.629Z,22.90
2023-03-07T17:00:37.286Z,22.90
2023-03-07T17:03:06.927Z,22.80
2023-03-07T17:05:36.640Z,22.80
2023-03-07T17:08:06.671Z,22.70
2023-03-07T17:10:38.527Z,22.70
2023-03-07T17:13:11.928Z,22.70
2023-03-07T17:15:41.890Z,22.60
2023-03-07T17:18:12.817Z,22.60
2023-03-07T17:20:43.803Z,22.60
2023-03-07T17:23:14.967Z,22.60
2023-03-07T17:25:46.207Z,22.50
2023-03-07T17:28:19.826Z,22.40
2023-03-07T17:30:52.073Z,22.40
2023-03-07T17:33:21.980Z,22.40
2023-03-07T17:35:51.829Z,22.40
2023-03-07T17:38:22.870Z,22.30
2023-03-07T17:40:59.276Z,22.30
2023-03-07T17:43:28.983Z,22.30
2023-03-07T17:45:59.245Z,22.30
2023-03-07T17:48:29.214Z,22.30
2023-03-07T17:50:58.852Z,22.30
2023-03-07T17:53:28.413Z,22.20
2023-03-07T17:55:58.652Z,22.20
2023-03-07T17:58:28.281Z,22.20
2023-03-07T18:00:57.879Z,22.20
2023-03-07T18:03:27.505Z,22.20
2023-03-07T18:05:57.385Z,22.20
2023-03-07T18:08:27.219Z,22.20
2023-03-07T18:11:03.714Z,22.20
2023-03-07T18:13:33.470Z,22.10
2023-03-07T18:16:03.425Z,22.10
2023-03-07T18:18:35.532Z,22.10
2023-03-07T18:21:11.325Z,22.10
2023-03-07T18:24:17.510Z,22.00
2023-03-07T18:26:47.353Z,22.00
2023-03-07T18:29:17.139Z,21.90
2023-03-07T18:31:47.250Z,21.90
2023-03-07T18:34:17.282Z,21.90
2023-03-07T18:36:46.903Z,21.80
2023-03-07T18:39:17.149Z,21.80
2023-03-07T18:41:46.766Z,21.80
2023-03-07T18:44:16.663Z,21.80
2023-03-07T18:46:46.862Z,21.70
2023-03-07T18:49:17.835Z,21.70
2023-03-07T18:51:47.676Z,21.70
2023-03-07T18:54:17.504Z,21.70
2023-03-07T18:57:13.765Z,21.70
2023-03-07T18:59:43.506Z,21.60
2023-03-07T19:02:13.293Z,21.60
2023-03-07T19:04:43.046Z,21.60
2023-03-07T19:07:12.658Z,21.60
2023-03-07T19:09:44.281Z,21.50
2023-03-07T19:12:14.648Z,21.50
2023-03-07T19:14:44.320Z,21.50
2023-03-07T19:17:13.981Z,21.50
2023-03-07T19:19:43.631Z,21.40
2023-03-07T19:22:14.192Z,21.40
2023-03-07T19:25:09.009Z,21.40
2023-03-07T19:27:38.833Z,21.30
2023-03-07T19:30:09.165Z,21.30
2023-03-07T19:32:38.870Z,21.30
2023-03-07T19:35:09.199Z,21.20
2023-03-07T19:37:39.514Z,21.20
2023-03-07T19:40:10.089Z,21.20
2023-03-07T19:42:39.809Z,21.20
2023-03-07T19:45:10.044Z,21.10
2023-03-07T19:47:40.057Z,21.10
2023-03-07T19:50:10.165Z,21.10
2023-03-07T19:52:39.784Z,21.10
2023-03-07T19:55:09.939Z,21.10
2023-03-07T19:57:39.575Z,21.00
2023-03-07T20:00:09.913Z,21.00
2023-03-07T20:02:39.943Z,21.00
2023-03-07T20:05:10.296Z,21.00
2023-03-07T20:07:40.008Z,20.90
2023-03-07T20:10:10.029Z,20.90
2023-03-07T20:12:39.689Z,20.90
2023-03-07T20:15:10.081Z,20.90
2023-03-07T20:17:39.945Z,20.80
2023-03-07T20:20:10.423Z,20.80
2023-03-07T20:22:42.059Z,20.80
2023-03-07T20:25:12.444Z,20.80
2023-03-07T20:27:42.823Z,20.80
2023-03-07T20:30:13.750Z,20.80
2023-03-07T20:32:43.656Z,20.70
2023-03-07T20:35:13.285Z,20.70
2023-03-07T20:37:42.928Z,20.70
2023-03-07T20:40:13.390Z,20.70
2023-03-07T20:42:43.042Z,20.70
2023-03-07T20:45:13.830Z,20.70
2023-03-07T20:47:43.481Z,20.70
2023-03-07T20:50:13.700Z,20.60
2023-03-07T20:52:43.289Z,20.60
2023-03-07T20:55:13.065Z,20.60
2023-03-07T20:57:42.690Z,20.60
2023-03-07T21:00:15.276Z,20.50
2023-03-07T21:02:48.019Z,20.50
2023-03-07T21:05:17.885Z,20.50
2023-03-07T21:07:47.552Z,20.40
2023-03-07T21:10:17.195Z,20.50
2023-03-07T21:12:46.823Z,20.40
2023-03-07T21:15:16.439Z,20.40
2023-03-07T21:17:46.025Z,20.40
2023-03-07T21:20:15.777Z,20.40
2023-03-07T21:22:46.367Z,20.40
2023-03-07T21:25:16.799Z,20.40
2023-03-07T21:27:46.645Z,20.40
2023-03-07T21:30:16.378Z,20.30
2023-03-07T21:32:46.085Z,20.30
2023-03-07T21:35:15.652Z,20.30
2023-03-07T21:37:45.168Z,20.30
2023-03-07T21:40:15.439Z,20.30
2023-03-07T21:42:45.028Z,20.30
2023-03-07T21:45:16.117Z,20.20
2023-03-07T21:47:45.661Z,20.30
2023-03-07T21:50:15.315Z,20.20
2023-03-07T21:52:47.541Z,20.20
2023-03-07T21:55:18.145Z,20.30
2023-03-07T21:57:47.845Z,20.20
2023-03-07T22:00:18.860Z,20.20
2023-03-07T22:02:48.392Z,20.20
2023-03-07T22:05:18.050Z,20.20
2023-03-07T22:07:50.395Z,20.20
2023-03-07T22:10:21.150Z,20.20
2023-03-07T22:12:50.742Z,20.20
2023-03-07T22:15:20.393Z,20.20
2023-03-07T22:17:49.903Z,20.10
2023-03-07T22:20:20.052Z,20.10
2023-03-07T22:22:49.658Z,20.10
2023-03-07T22:25:19.939Z,20.00
2023-03-07T22:27:49.830Z,20.00
2023-03-07T22:30:19.852Z,20.00
2023-03-07T22:32:49.495Z,20.00
2023-03-07T22:35:19.302Z,20.00
2023-03-07T22:37:48.866Z,19.90
2023-03-07T22:40:18.538Z,19.90
2023-03-07T22:42:48.249Z,19.90
2023-03-07T22:45:17.819Z,19.90
2023-03-07T22:47:47.469Z,19.90
2023-03-07T22:50:17.230Z,19.80
2023-03-07T22:52:46.805Z,19.80
2023-03-07T22:55:16.423Z,19.70
2023-03-07T22:57:46.110Z,19.70
2023-03-07T23:00:16.230Z,19.70
2023-03-07T23:02:45.849Z,19.70
2023-03-07T23:05:15.520Z,19.60
2023-03-07T23:07:47.187Z,19.70
2023-03-07T23:10:18.193Z,19.60
2023-03-07T23:12:50.858Z,19.60
2023-03-07T23:15:20.499Z,19.60
2023-03-07T23:17:50.186Z,19.60
2023-03-07T23:20:21.424Z,19.50
2023-03-07T23:22:51.440Z,19.50
2023-03-07T23:25:21.877Z,19.50
2023-03-07T23:27:51.648Z,19.50
2023-03-07T23:30:21.969Z,19.50
2023-03-07T23:32:53.069Z,19.50
2023-03-07T23:35:22.666Z,19.60
2023-03-07T23:37:52.243Z,19.50
2023-03-07T23:40:23.055Z,19.50
2023-03-07T23:42:52.764Z,19.50
2023-03-07T23:45:22.975Z,19.50
2023-03-07T23:47:52.725Z,19.40
2023-03-07T23:50:22.649Z,19.50
2023-03-07T23:52:52.234Z,19.40
2023-03-07T23:55:21.952Z,19.40
2023-03-07T23:57:51.655Z,19.40
